createdAt,value
2017-01-30T00:00:03.349Z,0
2017-01-30T00:05:03.182Z,0
2017-01-30T00:10:18.005Z,0
2017-01-30T00:15:02.872Z,0
2017-01-30T00:20:02.553Z,0
2017-01-30T00:25:03.189Z,0
2017-01-30T00:30:03.041Z,0
2017-01-30T00:35:02.599Z,0
2017-01-30T00:40:03.217Z,0
2017-01-30T00:45:02.701Z,0
2017-01-30T00:50:03.289Z,0
2017-01-30T00:55:02.816Z,0
2017-01-30T01:00:03.351Z,0
2017-01-30T01:05:03.297Z,0
2017-01-30T01:10:03.103Z,0
2017-01-30T01:15:02.820Z,0
2017-01-30T01:20:02.801Z,0
2017-01-30T01:25:03.499Z,0
2017-01-30T01:30:03.341Z,0
2017-01-30T01:35:02.834Z,0
2017-01-30T01:40:02.500Z,0
2017-01-30T01:45:03.446Z,0
2017-01-30T01:50:03.159Z,0
2017-01-30T01:55:02.603Z,0
2017-01-30T02:00:03.163Z,0
2017-01-30T02:05:02.767Z,0
2017-01-30T02:10:03.161Z,0
2017-01-30T02:15:03.085Z,0
2017-01-30T02:20:02.911Z,0
2017-01-30T02:25:02.724Z,0
2017-01-30T02:30:03.338Z,0
2017-01-30T02:35:03.037Z,0
2017-01-30T02:40:03.011Z,0
2017-01-30T02:45:02.740Z,0
2017-01-30T02:50:03.263Z,0
2017-01-30T02:55:03.142Z,0
2017-01-30T03:00:02.801Z,0
2017-01-30T03:05:02.550Z,0
2017-01-30T03:10:03.036Z,0
2017-01-30T03:15:02.700Z,0
2017-01-30T03:20:03.643Z,0
2017-01-30T03:25:03.477Z,0
2017-01-30T03:30:02.906Z,0
2017-01-30T03:35:02.485Z,0
2017-01-30T03:40:03.427Z,0
2017-01-30T03:45:03.073Z,0
2017-01-30T03:50:02.658Z,0
2017-01-30T03:55:03.290Z,0
2017-01-30T04:00:03.254Z,0
2017-01-30T04:05:03.165Z,0
2017-01-30T04:10:02.516Z,0
2017-01-30T04:15:03.243Z,0
2017-01-30T04:20:02.925Z,0
2017-01-30T04:25:02.536Z,0
2017-01-30T04:30:03.398Z,0
2017-01-30T04:35:02.845Z,0
2017-01-30T04:40:02.752Z,0
2017-01-30T04:45:03.530Z,0
2017-01-30T04:50:02.993Z,0
2017-01-30T04:55:02.545Z,0
2017-01-30T05:00:03.193Z,0
2017-01-30T05:05:02.724Z,0
2017-01-30T05:10:02.605Z,0
2017-01-30T05:15:03.201Z,0
2017-01-30T05:20:02.898Z,0
2017-01-30T05:25:02.527Z,0
2017-01-30T05:30:02.468Z,0
2017-01-30T05:35:02.973Z,0
2017-01-30T05:40:02.454Z,0
2017-01-30T05:45:02.878Z,0
2017-01-30T05:50:02.799Z,0
2017-01-30T05:55:02.572Z,0
2017-01-30T06:00:02.608Z,0
2017-01-30T06:05:03.165Z,0
2017-01-30T06:10:02.815Z,0
2017-01-30T06:15:03.450Z,0
2017-01-30T06:20:03.010Z,0
2017-01-30T06:25:02.689Z,0
2017-01-30T06:30:02.577Z,0
2017-01-30T06:35:02.562Z,0
2017-01-30T06:40:03.180Z,0
2017-01-30T06:45:02.617Z,0
2017-01-30T06:50:03.391Z,0
2017-01-30T06:55:02.971Z,1
2017-01-30T07:00:02.979Z,3
2017-01-30T07:05:03.387Z,8
2017-01-30T07:10:03.167Z,24
2017-01-30T07:15:02.760Z,26
2017-01-30T07:20:03.296Z,29
2017-01-30T07:25:02.917Z,37
2017-01-30T07:30:02.502Z,45
2017-01-30T07:35:03.266Z,54
2017-01-30T07:40:03.014Z,55
2017-01-30T07:45:02.550Z,58
2017-01-30T07:50:03.168Z,63
2017-01-30T07:55:02.943Z,67
2017-01-30T08:00:02.571Z,81
2017-01-30T08:05:03.168Z,156
2017-01-30T08:10:02.783Z,302
2017-01-30T08:15:03.408Z,311
2017-01-30T08:20:03.188Z,461
2017-01-30T08:25:02.853Z,664
2017-01-30T08:30:03.476Z,1000
2017-01-30T08:35:03.079Z,670
2017-01-30T08:40:02.751Z,660
2017-01-30T08:45:02.629Z,683
2017-01-30T08:50:03.408Z,684
2017-01-30T08:55:02.895Z,839
2017-01-30T09:00:02.576Z,870
2017-01-30T09:05:03.113Z,684
2017-01-30T09:10:02.655Z,702
2017-01-30T09:15:03.236Z,636
2017-01-30T09:20:02.588Z,644
2017-01-30T09:25:03.020Z,726
2017-01-30T09:30:02.541Z,662
2017-01-30T09:35:02.928Z,669
2017-01-30T09:40:02.740Z,703
2017-01-30T09:45:02.504Z,764
2017-01-30T09:50:03.018Z,890
2017-01-30T09:55:02.710Z,1000
2017-01-30T10:00:03.401Z,861
2017-01-30T10:05:02.890Z,910
2017-01-30T10:10:02.753Z,943
2017-01-30T10:15:02.569Z,1000
2017-01-30T10:20:02.505Z,997
2017-01-30T10:25:03.091Z,1000
2017-01-30T10:30:02.806Z,1000
2017-01-30T10:35:02.504Z,1000
2017-01-30T10:40:03.121Z,970
2017-01-30T10:45:02.662Z,997
2017-01-30T10:50:03.190Z,970
2017-01-30T10:55:02.908Z,886
2017-01-30T11:00:02.597Z,1000
2017-01-30T11:05:02.581Z,1000
2017-01-30T11:10:03.096Z,1000
2017-01-30T11:15:02.882Z,1000
2017-01-30T11:20:02.509Z,1000
2017-01-30T11:25:03.241Z,1000
2017-01-30T11:30:03.164Z,1000
2017-01-30T11:35:02.831Z,1000
2017-01-30T11:40:02.613Z,1000
2017-01-30T11:45:02.649Z,1000
2017-01-30T11:50:03.371Z,1000
2017-01-30T11:55:02.585Z,1000
2017-01-30T12:00:03.314Z,1000
2017-01-30T12:05:02.969Z,2000
2017-01-30T12:10:02.690Z,3000
2017-01-30T12:15:03.246Z,3000
2017-01-30T12:20:03.121Z,2000
2017-01-30T12:25:02.558Z,2000
2017-01-30T12:30:03.171Z,1000
2017-01-30T12:35:02.769Z,2000
2017-01-30T12:40:02.784Z,1000
2017-01-30T12:45:03.195Z,1000
2017-01-30T12:50:03.209Z,1000
2017-01-30T12:55:02.686Z,1000
2017-01-30T13:00:03.415Z,590
2017-01-30T13:05:03.024Z,447
2017-01-30T13:10:02.478Z,564
2017-01-30T13:15:03.089Z,705
2017-01-30T13:20:03.057Z,726
2017-01-30T13:25:02.854Z,882
2017-01-30T13:30:02.639Z,910
2017-01-30T13:35:02.953Z,775
2017-01-30T13:40:02.495Z,907
2017-01-30T13:45:03.268Z,1000
2017-01-30T13:50:03.114Z,1000
2017-01-30T13:55:02.826Z,2000
2017-01-30T14:00:02.687Z,856
2017-01-30T14:05:03.274Z,910
2017-01-30T14:10:02.634Z,803
2017-01-30T14:15:03.056Z,489
2017-01-30T14:20:02.505Z,489
2017-01-30T14:25:02.872Z,588
2017-01-30T14:30:03.442Z,601
2017-01-30T14:35:03.087Z,912
2017-01-30T14:40:02.979Z,700
2017-01-30T14:45:02.645Z,567
2017-01-30T14:50:03.436Z,397
2017-01-30T14:55:02.951Z,312
2017-01-30T15:00:02.606Z,287
2017-01-30T15:05:02.616Z,313
2017-01-30T15:10:03.501Z,311
2017-01-30T15:15:03.040Z,330
2017-01-30T15:20:02.562Z,296
2017-01-30T15:25:03.287Z,257
2017-01-30T15:30:02.831Z,289
2017-01-30T15:35:02.566Z,173
2017-01-30T15:40:03.180Z,410
2017-01-30T15:50:03.144Z,266
2017-01-30T15:55:02.960Z,165
2017-01-30T16:00:02.591Z,85
2017-01-30T16:05:03.245Z,66
2017-01-30T16:10:02.781Z,51
2017-01-30T16:15:03.343Z,35
2017-01-30T16:20:03.011Z,35
2017-01-30T16:25:02.680Z,19
2017-01-30T16:30:03.276Z,8
2017-01-30T16:35:02.999Z,3
2017-01-30T16:40:02.748Z,1
2017-01-30T16:45:02.676Z,0
2017-01-30T16:50:03.268Z,0
2017-01-30T16:55:02.748Z,0
2017-01-30T17:00:03.364Z,0
2017-01-30T17:05:02.881Z,0
2017-01-30T17:10:02.629Z,0
2017-01-30T17:15:03.118Z,0
2017-01-30T17:20:02.652Z,0
2017-01-30T17:25:02.527Z,0
2017-01-30T17:30:03.068Z,0
2017-01-30T17:35:02.564Z,0
2017-01-30T17:40:03.017Z,0
2017-01-30T17:45:03.285Z,0
2017-01-30T17:50:02.742Z,0
2017-01-30T17:55:03.287Z,0
2017-01-30T18:00:02.741Z,0
2017-01-30T18:05:02.650Z,0
2017-01-30T18:10:02.401Z,0
2017-01-30T18:15:03.104Z,0
2017-01-30T18:20:02.823Z,0
2017-01-30T18:25:03.327Z,0
2017-01-30T18:30:03.194Z,0
2017-01-30T18:35:02.799Z,0
2017-01-30T18:40:02.580Z,0
2017-01-30T18:45:03.022Z,0
2017-01-30T18:50:02.648Z,0
2017-01-30T18:55:02.468Z,0
2017-01-30T19:00:03.009Z,0
2017-01-30T19:05:02.706Z,0
2017-01-30T19:10:02.724Z,0
2017-01-30T19:15:03.388Z,0
2017-01-30T19:20:03.332Z,0
2017-01-30T19:25:02.971Z,0
2017-01-30T19:30:02.628Z,0
2017-01-30T19:35:02.573Z,0
2017-01-30T19:40:03.418Z,0
2017-01-30T19:45:02.981Z,0
2017-01-30T19:50:02.929Z,0
2017-01-30T19:55:02.891Z,0
2017-01-30T20:00:02.625Z,0
2017-01-30T20:05:02.496Z,0
2017-01-30T20:10:03.227Z,0
2017-01-30T20:15:03.133Z,0
2017-01-30T20:20:02.990Z,0
2017-01-30T20:25:02.528Z,0
2017-01-30T20:30:03.072Z,0
2017-01-30T20:35:02.704Z,0
2017-01-30T20:40:02.490Z,0
2017-01-30T20:45:03.125Z,0
2017-01-30T20:50:02.897Z,0
2017-01-30T20:55:03.504Z,0
2017-01-30T21:00:02.659Z,0
2017-01-30T21:05:03.195Z,0
2017-01-30T21:10:03.219Z,0
2017-01-30T21:15:03.035Z,0
2017-01-30T21:20:03.095Z,0
2017-01-30T21:25:02.474Z,0
2017-01-30T21:30:03.176Z,0
2017-01-30T21:35:03.025Z,0
2017-01-30T21:40:03.252Z,0
2017-01-30T21:45:02.785Z,0
2017-01-30T21:50:03.161Z,0
2017-01-30T21:55:02.927Z,0
2017-01-30T22:00:03.278Z,0
2017-01-30T22:05:03.353Z,0
2017-01-30T22:10:03.040Z,0
2017-01-30T22:15:02.453Z,0
2017-01-30T22:20:02.898Z,0
2017-01-30T22:25:03.187Z,0
2017-01-30T22:30:02.547Z,0
2017-01-30T22:35:02.992Z,0
2017-01-30T22:40:02.649Z,0
2017-01-30T22:45:02.812Z,0
2017-01-30T22:50:02.576Z,0
2017-01-30T22:55:03.469Z,0
2017-01-30T23:00:03.156Z,0
2017-01-30T23:05:02.796Z,0
2017-01-30T23:10:02.725Z,0
2017-01-30T23:15:02.985Z,0
2017-01-30T23:20:02.888Z,0
2017-01-30T23:25:02.476Z,0
2017-01-30T23:30:02.914Z,0
2017-01-30T23:35:02.578Z,0
2017-01-30T23:40:03.317Z,0
2017-01-30T23:45:02.759Z,0
2017-01-30T23:50:02.628Z,0
2017-01-30T23:55:02.517Z,0
